Main page
METAR-TAF:

METAR-TAF

Airports :

Volgograd, Russia

Volgograd International Airport

latitude: 48-47N, longitude: 044-22E, elevation: 145 m

Current weather observation

The report was made 33 minutes ago, at 19:00 UTC
Wind 12 kt from the Southeast
Temperature -1°C
Humidity 93%
Pressure 1025 hPa
Visibility 10 km or more
Scattered clouds at a height of 1300 ft

METAR: URWW 171900Z 14006MPS 9999 SCT013 M01/M02 Q1025 R24/710150 NOSIG

Time: 22:33 (19:33 UTC)

Forecast

The report was made 21 minutes ago, at 19:12 UTC
Forecast valid from 17 at 19 UTC to 18 at 03 UTC
Wind 17 kt from the South/Southeast with gusts up to 29 kt
Visibility: 3100 m
Broken clouds at a height of 1100 ft
mist
Temporary
from 17 at 21 UTC to 18 at 03 UTC
Wind 16 kt from the East/Southeast with gusts up to 25 kt
Visibility: 0300 m
Overcast at a height of 200 ft
freezing fog

TAF: URWW 171912Z 1719/1803 15009G15MPS 3100 BR BKN011 TEMPO 1721/1803 12008G13MPS 0300 FZFG OVC002

Weather observations and forecasts of more than 4000 airports (METAR and TAF reports).

The available stations are represented by yellow and red dots on the map.

Hover mouse over dot to see the name of the station.

Then click to see weather observations and forecasts.

To change the map : click on the green buttons with a black cross to zoom in, on the green button with a dash to zoom out, or on the green arrows for adjacent maps.


METAR-TAF: